Weather observations for the past three days for
Teller
Imperial (Metric)
Date Time (akdt) Wind (mph) Vis. (mi.) Weather Sky Cond. Temperature (ºF) Relative Humidity Wind Chill (°F) Heat Index (°F) Pressure Precipitation (in)
Air Dwpt 6 hour altimeter (in) sea level (mb) 1 hr 3 hr 6 hr
Max. Min.
06 12:56 E 5 10.00 Overcast OVC004 48.9 48 97% 48 29.91 1013.1
06 11:56 N 5 10.00 Overcast OVC004 48 46.9 96% 47 29.91 1013.1
06 09:56 Calm 10.00 Overcast OVC008 46.9 46 48 45 97% 29.92 1013.3
06 08:56 E 3 10.00 Overcast OVC008 46 46 100% 29.92 1013.4
06 07:56 N 5 10.00 Overcast OVC012 46.9 46 97% 45 29.92 1013.3
06 06:56 N 3 10.00 Overcast OVC014 46.9 46 97% 29.92 1013.5
06 05:56 Calm 10.00 Overcast SCT020 OVC027 46.9 46 97% 29.92 1013.6
06 04:56 SE 6 10.00 Overcast OVC018 46.9 46.9 100% 45 29.93 1013.8
06 03:56 Calm 7.00 Overcast OVC012 46.9 46.9 48.9 46 100% 29.93 1013.9
06 02:56 E 5 10.00 Overcast FEW011 OVC018 46.9 46.9 100% 45 29.93 1013.9
06 01:56 NE 3 10.00 Overcast BKN014 BKN019 OVC027 46.9 46.9 100% 29.93 1013.8
06 00:56 SE 6 10.00 Overcast OVC031 46 46 100% 44 29.93 1013.7
05 23:56 SW 6 10.00 Overcast OVC031 46.9 46.9 100% 45 29.93 1013.7
05 22:56 S 7 10.00 Overcast OVC029 48.9 46 90% 46 29.91 1013.2
05 21:56 S 3 10.00 Overcast OVC029 48 46.9 53.1 48 96% 29.91 1013.0
05 20:56 S 8 10.00 Overcast SCT003 OVC027 48.9 48 97% 46 29.9 1012.7
05 19:56 SW 15 4.00 Fog/Mist OVC003 48 48 100% 43 29.89 1012.4
05 18:56 SW 17 10.00 Overcast OVC007 50 48 93% 45 29.88 1012.1
05 17:56 SW 15 10.00 Overcast BKN009 BKN013 OVC019 52 48.9 89% 29.87 1011.6
05 16:56 SW 18 10.00 Overcast BKN011 OVC023 52 48.9 89% 29.86 1011.4
05 15:56 S 21 10.00 Overcast and Breezy OVC055 53.1 48.9 54 48 86% 29.85 1010.9 0.01
05 14:56 S 15 10.00 Overcast BKN014 OVC045 53.1 48.9 86% 29.83 1010.5
05 13:56 SW 12 10.00 Overcast OVC007 51.1 48.9 92% 29.83 1010.2
05 12:56 SW 12 10.00 Overcast OVC007 51.1 48.9 92% 29.81 1009.8 0.01
05 11:56 S 13 10.00 Overcast OVC008 50 48.9 96% 46 29.8 1009.3
05 09:56 SE 8 7.00 Light Rain OVC012 48 48 48 45 100% 45 29.77 1008.4 0.01 0.09
05 08:56 E 5 7.00 Light Rain OVC018 46.9 46.9 100% 45 29.76 1008.0 0.07
05 07:56 E 7 5.00 Light Rain Fog/Mist OVC025 46.9 46.9 100% 44 29.75 1007.8 0.01
05 06:56 SE 9 10.00 Overcast OVC031 46.9 46 97% 43 29.74 1007.5
05 05:56 SE 8 10.00 Mostly Cloudy FEW035 BKN060 46.9 46 97% 44 29.74 1007.4
05 04:56 E 6 10.00 A Few Clouds FEW035 46 46 100% 44 29.74 1007.3
05 03:56 E 8 10.00 Overcast OVC031 46.9 46 50 41 97% 44 29.75 1007.8
05 02:56 E 6 10.00 Fair CLR 45 44.1 97% 42 29.75 1007.8
05 01:56 SE 5 10.00 Fair CLR 41 41 100% 38 29.75 1007.7
05 00:56 Calm 10.00 Partly Cloudy SCT023 48.9 46 90% 29.75 1007.8
04 23:56 S 3 10.00 Fair CLR 46 45 96% 29.75 1007.7
04 22:56 SE 5 10.00 Partly Cloudy SCT027 46 45 96% 44 29.76 1008.0
04 21:56 E 10 10.00 Fair CLR 50 46 54 50 86% 46 29.76 1007.9
04 20:56 SE 5 10.00 A Few Clouds FEW020 52 46.9 83% 29.77 1008.3
04 19:56 E 7 10.00 A Few Clouds FEW022 54 46.9 77% 29.77 1008.4
04 18:56 NE 5 10.00 Overcast OVC018 53.1 46.9 80% 29.79 1009.0
04 17:56 NE 7 10.00 Overcast OVC018 53.1 46.9 80% 29.79 1009.2
04 16:56 Vrbl 5 10.00 Overcast OVC018 52 46.9 83% 29.81 1009.6
04 15:56 NE 7 10.00 Overcast OVC016 52 46.9 52 48 83% 29.8 1009.5
04 14:56 N 5 10.00 Overcast OVC014 50 48 93% 49 29.82 1009.9
04 13:56 Calm 10.00 Overcast OVC014 51.1 46.9 86% 29.83 1010.3
04 12:56 E 3 10.00 Overcast OVC010 48.9 46.9 93% 29.83 1010.2
04 11:56 NE 5 10.00 Overcast SCT007 OVC013 48.9 46.9 93% 48 29.81 1009.6
04 10:56 Calm 10.00 Overcast OVC013 48 46 93% 29.8 1009.5
04 09:56 S 6 10.00 Overcast OVC011 48 48 48 46 100% 46 29.8 1009.4
04 08:56 Calm 9.00 Overcast OVC007 48 46.9 96% 29.79 1009.1
04 07:56 SW 3 10.00 Overcast OVC007 46.9 46.9 100% 29.79 1009.0
04 06:56 S 7 7.00 Overcast OVC007 46.9 46.9 100% 44 29.77 1008.5
04 05:56 S 9 10.00 Overcast OVC005 46.9 46 97% 43 29.76 1008.2
04 04:56 S 13 9.00 Overcast OVC005 46.9 46 97% 42 29.75 1007.5
04 03:56 S 17 9.00 Overcast OVC003 46.9 46.9 48.9 46.9 100% 41 29.73 1007.0
04 02:56 S 13 5.00 Fog/Mist OVC003 46.9 46.9 100% 42 29.72 1006.7
04 01:56 S 13 6.00 Fog/Mist OVC005 46.9 46.9 100% 42 29.71 1006.5
04 00:56 SW 13 2.00 Light Rain Fog/Mist OVC003 46.9 46.9 100% 42 29.69 1005.8
03 23:56 S 16 7.00 Overcast OVC005 48 46.9 96% 42 29.66 1004.8
03 22:56 S 15 3.00 Light Rain Fog/Mist OVC005 48 48 100% 43 29.64 1004.0
03 21:56 SW 13 10.00 Overcast OVC007 48.9 48 50 46 97% 44 29.62 1003.2 0.08
03 20:56 SW 13 10.00 Overcast OVC009 48.9 48 97% 44 29.59 1002.5
03 19:56 SW 6 10.00 Overcast OVC007 50 48.9 96% 48 29.57 1001.8
03 18:56 E 7 6.00 Light Rain Fog/Mist BKN007 OVC012 48 48 100% 45 29.56 1001.2 0.01 0.08
03 17:56 E 10 8.00 Light Rain BKN005 OVC008 46.9 46 97% 43 29.55 1000.9 0.02
03 16:56 E 15 5.00 Light Rain Fog/Mist SCT006 OVC017 46 45 96% 40 29.54 1000.6 0.05
03 15:56 E 17 10.00 Light Rain OVC006 44.1 44.1 44.1 39 100% 37 29.55 1000.9 0.19
03 14:56 E 23 6.00 Light Rain Fog/Mist and Breezy OVC006 43 43 100% 34 29.56 1001.2 0.01
03 13:56 E 28 G 35 5.00 Light Rain Fog/Mist and Windy BKN006 OVC046 42.1 42.1 100% 32 29.56 1001.2
Date Time (akdt) Wind (mph) Vis. (mi.) Weather Sky Cond. Air Dwpt Max. Min. Relative Humidity Wind Chill (°F) Heat Index (°F) altimeter (in) sea level (mb) 1 hr 3 hr 6 hr
6 hour
Temperature (ºF) Pressure Precipitation (in)